Terminal Aerodrome Forecast
Issued by NWS

Home | Current Version | Previous Version | Text Only | Print | Product List | Glossary On
Versions: 1 2 3 4 5 6 7 8 9 10 11 12 13 14 15 16 17 18 19 20 21 22 23 24
000
FTUS45 KGJT 211741
TAFMTJ
TAF
KMTJ 211741Z 2118/2218 VRB04KT P6SM VCSH SCT070 OVC110
      TEMPO 2119/2123 VRB10KT -SHRA OVC050
     FM220200 15005KT P6SM BKN100
     FM221500 VRB03KT P6SM BKN100=

USA.gov is the U.S. government's official web portal to all federal, state and local government web resources and services.